createdAt,value
2022-07-29T00:11:07.803Z,982.5
2022-07-29T00:25:41.676Z,982.4
2022-07-29T00:40:11.398Z,982.3
2022-07-29T00:54:34.558Z,982.2
2022-07-29T01:08:47.664Z,982.2
2022-07-29T01:23:14.509Z,981.9
2022-07-29T01:37:42.084Z,982.1
2022-07-29T01:52:09.291Z,982
2022-07-29T02:06:37.528Z,981.7
2022-07-29T02:21:04.986Z,981.6
2022-07-29T02:35:38.243Z,981.7
2022-07-29T02:50:03.046Z,981.5
2022-07-29T03:04:35.869Z,981.5
2022-07-29T03:18:58.016Z,981.3
2022-07-29T03:33:25.341Z,981.3
2022-07-29T03:48:01.243Z,981.2
2022-07-29T04:02:31.002Z,981.2
2022-07-29T04:16:52.406Z,981.2
2022-07-29T04:31:26.384Z,981.5
2022-07-29T04:45:51.096Z,981.6
2022-07-29T05:00:18.342Z,981.7
2022-07-29T05:14:44.725Z,981.9
2022-07-29T05:29:46.073Z,982
2022-07-29T05:43:56.425Z,982.1
2022-07-29T05:58:24.704Z,982.1
2022-07-29T06:12:53.333Z,982.3
2022-07-29T06:27:23.288Z,982.4
2022-07-29T06:41:51.730Z,982.6
2022-07-29T06:56:19.662Z,982.6
2022-07-29T07:10:49.689Z,982.7
2022-07-29T07:25:18.499Z,982.7
2022-07-29T07:39:54.334Z,982.7
2022-07-29T07:54:30.355Z,982.6
2022-07-29T08:09:13.559Z,982.6
2022-07-29T08:23:58.899Z,982.6
2022-07-29T08:38:28.010Z,982.6
2022-07-29T08:53:00.568Z,982.5
2022-07-29T09:07:38.300Z,982.3
2022-07-29T09:21:53.323Z,982.3
2022-07-29T09:36:18.046Z,982.3
2022-07-29T09:50:48.156Z,982.3
2022-07-29T10:05:15.143Z,982.3
2022-07-29T10:19:42.292Z,982.3
2022-07-29T10:34:12.608Z,982.3
2022-07-29T10:48:43.806Z,982.3
2022-07-29T11:03:12.593Z,982.3
2022-07-29T11:17:53.389Z,982.2
2022-07-29T12:20:45.050Z,981.9
2022-07-29T12:35:10.621Z,981.7
2022-07-29T12:49:39.858Z,981.6
2022-07-29T13:04:06.566Z,981.6
2022-07-29T13:18:34.813Z,981.5
2022-07-29T13:33:01.697Z,981.5
2022-07-29T13:47:33.564Z,981.6
2022-07-29T14:01:57.637Z,981.7
2022-07-29T14:16:24.428Z,981.7
2022-07-29T14:30:51.311Z,981.9
2022-07-29T14:45:18.092Z,981.9
2022-07-29T14:59:46.039Z,982
2022-07-29T15:14:13.903Z,982.2
2022-07-29T15:28:43.088Z,982.1
2022-07-29T15:43:11.511Z,982.1
2022-07-29T15:57:39.174Z,982.1
2022-07-29T16:12:15.854Z,982.1
2022-07-29T16:26:37.652Z,982.1
2022-07-29T16:41:03.897Z,982.2
2022-07-29T16:55:31.770Z,982.3
2022-07-29T17:10:04.512Z,982.5
2022-07-29T17:24:29.375Z,982.6
2022-07-29T17:38:55.256Z,982.7
2022-07-29T17:53:22.823Z,982.9
2022-07-29T18:07:49.437Z,983
2022-07-29T18:22:18.386Z,983.1
2022-07-29T18:36:43.755Z,983.2
2022-07-29T18:51:10.972Z,983.1
2022-07-29T19:05:37.613Z,983.3
2022-07-29T19:20:07.606Z,983.3
2022-07-29T19:34:32.983Z,983.6
2022-07-29T19:48:58.719Z,983.9
2022-07-29T20:03:26.438Z,984
2022-07-29T20:17:57.711Z,984
2022-07-29T20:32:20.668Z,984
2022-07-29T20:46:48.237Z,984
2022-07-29T21:01:15.177Z,983.9
2022-07-29T21:15:42.813Z,984.1
2022-07-29T21:30:10.510Z,984.1
2022-07-29T21:44:38.553Z,984.2
2022-07-29T21:59:13.026Z,984.3
2022-07-29T22:13:37.299Z,984.3
2022-07-29T22:28:04.299Z,984.2
2022-07-29T22:42:32.615Z,984.3
2022-07-29T22:57:02.911Z,984.3
2022-07-29T23:11:29.786Z,984.3
2022-07-29T23:25:57.382Z,984.2
2022-07-29T23:40:25.178Z,984.2
2022-07-29T23:55:39.592Z,984.1
